createdAt,value
2018-05-31T00:01:38.418Z,21.20
2018-05-31T00:04:05.896Z,21.10
2018-05-31T00:06:33.347Z,21.10
2018-05-31T00:09:00.896Z,21.10
2018-05-31T00:11:28.461Z,21.00
2018-05-31T00:13:55.916Z,20.90
2018-05-31T00:16:23.395Z,20.90
2018-05-31T00:18:50.839Z,20.90
2018-05-31T00:21:18.379Z,20.90
2018-05-31T00:23:45.847Z,20.90
2018-05-31T00:26:13.490Z,20.80
2018-05-31T00:28:40.945Z,20.80
2018-05-31T00:31:08.404Z,20.70
2018-05-31T00:33:35.842Z,20.70
2018-05-31T00:36:03.288Z,20.80
2018-05-31T00:38:31.503Z,20.80
2018-05-31T00:40:58.952Z,20.80
2018-05-31T00:43:26.409Z,20.80
2018-05-31T00:45:53.864Z,20.80
2018-05-31T00:48:21.339Z,20.80
2018-05-31T00:50:48.795Z,20.80
2018-05-31T00:53:16.249Z,20.70
2018-05-31T00:55:55.738Z,20.70
2018-05-31T00:58:23.237Z,20.70
2018-05-31T01:00:50.716Z,20.70
2018-05-31T01:03:18.357Z,20.60
2018-05-31T01:05:45.779Z,20.60
2018-05-31T01:08:14.005Z,20.40
2018-05-31T01:10:41.459Z,20.30
2018-05-31T01:13:09.671Z,20.30
2018-05-31T01:15:37.135Z,20.30
2018-05-31T01:18:04.591Z,20.20
2018-05-31T01:20:32.046Z,20.20
2018-05-31T01:22:59.491Z,20.20
2018-05-31T01:25:26.931Z,20.20
2018-05-31T01:27:54.428Z,20.20
2018-05-31T01:30:21.864Z,20.20
2018-05-31T01:32:49.352Z,20.20
2018-05-31T01:35:16.899Z,20.20
2018-05-31T01:37:44.343Z,20.20
2018-05-31T01:40:11.778Z,20.20
2018-05-31T01:42:39.236Z,20.20
2018-05-31T01:45:06.737Z,20.20
2018-05-31T01:47:34.276Z,20.20
2018-05-31T01:50:01.720Z,20.10
2018-05-31T01:52:29.172Z,20.10
2018-05-31T01:54:56.619Z,20.10
2018-05-31T01:57:24.113Z,20.00
2018-05-31T01:59:51.557Z,20.00
2018-05-31T02:02:18.995Z,20.00
2018-05-31T02:04:46.484Z,20.00
2018-05-31T02:07:13.939Z,19.90
2018-05-31T02:09:41.405Z,19.90
2018-05-31T02:12:08.952Z,19.80
2018-05-31T02:14:36.375Z,19.80
2018-05-31T02:17:04.594Z,19.70
2018-05-31T02:19:32.142Z,19.70
2018-05-31T02:21:59.567Z,19.70
2018-05-31T02:24:27.019Z,19.60
2018-05-31T02:26:55.228Z,19.60
2018-05-31T02:29:22.658Z,19.60
2018-05-31T02:31:51.169Z,19.60
2018-05-31T02:34:18.612Z,19.60
2018-05-31T02:36:46.185Z,19.60
2018-05-31T02:39:13.664Z,19.60
2018-05-31T02:41:41.115Z,19.60
2018-05-31T02:44:08.549Z,19.60
2018-05-31T02:46:35.995Z,19.60
2018-05-31T02:49:03.483Z,19.60
2018-05-31T02:51:30.923Z,19.60
2018-05-31T02:53:58.385Z,19.60
2018-05-31T02:56:25.821Z,19.60
2018-05-31T02:58:54.133Z,19.50
2018-05-31T03:01:21.686Z,19.50
2018-05-31T03:03:49.147Z,19.50
2018-05-31T03:06:16.603Z,19.50
2018-05-31T03:08:44.158Z,19.40
2018-05-31T03:11:11.623Z,19.40
2018-05-31T03:13:39.069Z,19.40
2018-05-31T03:16:06.539Z,19.40
2018-05-31T03:18:33.998Z,19.40
2018-05-31T03:21:01.431Z,19.40
2018-05-31T03:23:28.882Z,19.30
2018-05-31T03:25:56.367Z,19.30
2018-05-31T03:28:23.818Z,19.30
2018-05-31T03:30:51.280Z,19.20
2018-05-31T03:33:18.719Z,19.20
2018-05-31T03:35:46.278Z,19.20
2018-05-31T03:38:13.732Z,19.10
2018-05-31T03:40:41.203Z,19.10
2018-05-31T03:43:08.639Z,19.10
2018-05-31T03:45:36.084Z,19.10
2018-05-31T03:48:03.520Z,19.10
2018-05-31T03:50:31.735Z,19.10
2018-05-31T03:52:59.171Z,19.10
2018-05-31T03:55:26.661Z,19.20
2018-05-31T03:57:54.108Z,19.20
2018-05-31T04:00:21.550Z,19.20
2018-05-31T04:02:49.035Z,19.20
2018-05-31T04:05:16.490Z,19.20
2018-05-31T04:07:43.938Z,19.20
2018-05-31T04:10:11.403Z,19.20
2018-05-31T04:12:38.855Z,19.30
2018-05-31T04:15:06.323Z,19.30
2018-05-31T04:17:33.782Z,19.30
2018-05-31T04:20:01.236Z,19.30
2018-05-31T04:22:28.681Z,19.30
2018-05-31T04:24:56.139Z,19.30
2018-05-31T04:27:23.619Z,19.30
2018-05-31T04:29:51.056Z,19.30
2018-05-31T04:32:18.499Z,19.30
2018-05-31T04:34:45.927Z,19.30
2018-05-31T04:37:14.154Z,19.40
2018-05-31T04:39:41.706Z,19.30
2018-05-31T04:42:09.134Z,19.40
2018-05-31T04:44:37.351Z,19.50
2018-05-31T04:47:04.779Z,19.40
2018-05-31T04:49:32.258Z,19.50
2018-05-31T04:51:59.686Z,19.60
2018-05-31T04:54:27.131Z,19.60
2018-05-31T04:56:55.342Z,19.70
2018-05-31T04:59:22.782Z,19.70
2018-05-31T05:01:50.272Z,19.80
2018-05-31T05:04:17.734Z,19.80
2018-05-31T05:06:45.171Z,19.90
2018-05-31T05:09:12.626Z,20.00
2018-05-31T05:11:40.096Z,20.00
2018-05-31T05:14:07.559Z,20.10
2018-05-31T05:16:35.100Z,20.20
2018-05-31T05:19:02.527Z,20.20
2018-05-31T05:21:30.746Z,20.30
2018-05-31T05:23:58.185Z,20.20
2018-05-31T05:26:25.689Z,20.30
2018-05-31T05:28:53.111Z,20.30
2018-05-31T05:31:20.546Z,20.40
2018-05-31T05:33:48.157Z,20.40
2018-05-31T05:36:15.591Z,20.40
2018-05-31T05:38:43.048Z,20.40
2018-05-31T05:41:10.493Z,20.40
2018-05-31T05:43:37.996Z,20.40
2018-05-31T05:46:05.383Z,20.40
2018-05-31T05:48:32.879Z,20.40
2018-05-31T05:51:00.455Z,20.50
2018-05-31T05:53:27.935Z,20.50
2018-05-31T05:55:55.547Z,20.60
2018-05-31T05:58:22.975Z,20.70
2018-05-31T06:00:50.415Z,20.80
2018-05-31T06:03:17.935Z,20.80
2018-05-31T06:05:45.438Z,20.90
2018-05-31T06:08:13.679Z,20.90
2018-05-31T06:10:41.227Z,20.90
2018-05-31T06:13:08.684Z,21.00
2018-05-31T06:15:36.183Z,20.90
2018-05-31T06:18:03.581Z,21.00
2018-05-31T06:20:31.041Z,21.00
2018-05-31T06:22:58.502Z,21.00
2018-05-31T06:25:26.061Z,21.00
2018-05-31T06:27:53.491Z,21.00
2018-05-31T06:30:20.939Z,21.00
2018-05-31T06:32:49.167Z,21.00
2018-05-31T06:35:16.599Z,20.90
2018-05-31T06:37:44.035Z,21.00
2018-05-31T06:40:12.341Z,21.10
2018-05-31T06:42:39.760Z,21.00
2018-05-31T06:45:07.971Z,21.20
2018-05-31T06:47:35.415Z,21.20
2018-05-31T06:50:02.851Z,21.30
2018-05-31T06:52:33.213Z,21.60
2018-05-31T06:55:00.876Z,21.50
2018-05-31T06:57:28.311Z,21.70
2018-05-31T06:59:55.747Z,21.80
2018-05-31T07:02:23.943Z,22.20
2018-05-31T07:04:51.395Z,22.20
2018-05-31T07:07:18.830Z,22.50
2018-05-31T07:09:47.114Z,22.80
2018-05-31T07:12:14.547Z,22.80
2018-05-31T07:14:42.004Z,23.00
2018-05-31T07:17:09.459Z,23.20
2018-05-31T07:19:36.899Z,23.50
2018-05-31T07:22:04.382Z,23.70
2018-05-31T07:24:31.813Z,23.80
2018-05-31T07:26:59.278Z,24.00
2018-05-31T07:29:26.847Z,24.10
2018-05-31T07:31:54.300Z,24.20
2018-05-31T07:34:21.851Z,24.30
2018-05-31T07:36:49.495Z,24.30
2018-05-31T07:39:16.911Z,24.50
2018-05-31T07:41:45.137Z,24.60
2018-05-31T07:44:12.582Z,24.60
2018-05-31T07:46:40.033Z,24.60
2018-05-31T07:49:07.507Z,24.70
2018-05-31T07:51:34.953Z,24.80
2018-05-31T07:54:02.496Z,24.80
2018-05-31T07:56:29.936Z,24.80
2018-05-31T07:58:57.399Z,24.90
2018-05-31T08:01:24.857Z,24.90
2018-05-31T08:03:52.319Z,24.90
2018-05-31T08:06:19.881Z,24.90
2018-05-31T08:08:47.338Z,24.90
2018-05-31T08:11:14.817Z,25.00
2018-05-31T08:13:42.220Z,25.10
2018-05-31T08:16:10.534Z,25.30
2018-05-31T08:18:38.106Z,25.40
2018-05-31T08:21:05.693Z,25.50
2018-05-31T08:23:33.924Z,25.60
2018-05-31T08:26:01.375Z,25.60
2018-05-31T08:28:28.827Z,25.70
2018-05-31T08:30:56.387Z,25.70
2018-05-31T08:33:23.903Z,25.90
2018-05-31T08:35:51.353Z,26.00
2018-05-31T08:38:18.780Z,26.20
2018-05-31T08:40:46.268Z,26.40
2018-05-31T08:43:13.727Z,26.50
2018-05-31T08:45:41.174Z,26.50
2018-05-31T08:48:08.641Z,26.50
2018-05-31T08:50:36.131Z,26.40
2018-05-31T08:53:03.563Z,26.40
2018-05-31T08:55:31.026Z,26.40
2018-05-31T08:57:58.479Z,26.40
2018-05-31T09:00:25.920Z,26.30
2018-05-31T09:02:53.362Z,26.20
2018-05-31T09:05:20.879Z,26.00
2018-05-31T09:07:49.111Z,26.00
2018-05-31T09:10:16.579Z,26.00
2018-05-31T09:12:44.036Z,26.00
2018-05-31T09:15:11.578Z,25.90
2018-05-31T09:17:38.965Z,25.90
2018-05-31T09:20:06.451Z,25.80
2018-05-31T09:22:34.727Z,25.50
2018-05-31T09:25:02.995Z,25.30
2018-05-31T09:27:30.450Z,25.30
2018-05-31T09:29:57.882Z,25.20
2018-05-31T09:32:25.356Z,25.00
2018-05-31T09:34:52.900Z,24.80
2018-05-31T09:37:20.319Z,24.80
2018-05-31T09:39:47.809Z,24.70
2018-05-31T09:42:15.267Z,24.70
2018-05-31T09:44:42.728Z,24.70
2018-05-31T09:47:10.291Z,24.60
2018-05-31T09:49:37.741Z,24.50
2018-05-31T09:52:05.234Z,24.40
2018-05-31T09:54:32.675Z,24.30
2018-05-31T09:57:00.143Z,24.30
2018-05-31T09:59:27.595Z,24.30
2018-05-31T10:01:55.041Z,24.20
2018-05-31T10:04:22.488Z,24.10
2018-05-31T10:06:50.047Z,24.10
2018-05-31T10:09:17.600Z,24.10
2018-05-31T10:11:45.047Z,24.10
2018-05-31T10:14:12.512Z,24.10
2018-05-31T10:16:39.931Z,24.10
2018-05-31T10:19:07.362Z,24.10
2018-05-31T10:21:34.886Z,24.00
2018-05-31T10:24:02.392Z,23.90
2018-05-31T10:26:30.644Z,23.60
2018-05-31T10:28:58.095Z,23.50
2018-05-31T10:31:25.522Z,23.40
2018-05-31T10:33:52.961Z,23.40
2018-05-31T10:36:20.467Z,23.30
2018-05-31T10:38:47.943Z,23.20
2018-05-31T10:41:15.367Z,23.10
2018-05-31T10:43:42.821Z,23.20
2018-05-31T10:46:10.263Z,23.30
2018-05-31T10:48:37.693Z,23.50
2018-05-31T10:51:05.935Z,23.80
2018-05-31T10:53:33.379Z,23.90
2018-05-31T10:56:00.868Z,24.00
2018-05-31T10:58:28.391Z,24.20
2018-05-31T11:00:55.860Z,24.30
2018-05-31T11:03:23.299Z,24.50
2018-05-31T11:05:50.736Z,24.70
2018-05-31T11:08:18.227Z,24.80
2018-05-31T11:10:45.688Z,24.90
2018-05-31T11:13:13.144Z,25.00
2018-05-31T11:15:40.719Z,25.00
2018-05-31T11:18:08.133Z,25.00
2018-05-31T11:20:35.598Z,25.00
2018-05-31T11:23:03.027Z,24.90
2018-05-31T11:25:30.523Z,24.80
2018-05-31T11:27:57.976Z,24.70
2018-05-31T11:30:25.399Z,24.50
2018-05-31T11:32:52.841Z,24.30
2018-05-31T11:35:21.039Z,24.10
2018-05-31T11:37:48.511Z,24.10
2018-05-31T11:40:15.989Z,24.00
2018-05-31T11:42:43.448Z,24.00
2018-05-31T11:45:10.985Z,23.90
2018-05-31T11:47:38.404Z,24.00
2018-05-31T11:50:06.642Z,23.80
2018-05-31T11:52:34.083Z,23.80
2018-05-31T11:55:01.531Z,23.80
2018-05-31T11:57:29.020Z,23.80
2018-05-31T11:59:56.476Z,23.80
2018-05-31T12:02:24.026Z,23.80
2018-05-31T12:04:51.606Z,23.80
2018-05-31T12:07:19.898Z,23.80
2018-05-31T12:09:47.326Z,23.70
2018-05-31T12:12:14.773Z,23.70
2018-05-31T12:14:42.238Z,23.70
2018-05-31T12:17:09.699Z,23.80
2018-05-31T12:19:37.128Z,23.80
2018-05-31T12:22:04.623Z,23.90
2018-05-31T12:24:32.074Z,24.00
2018-05-31T12:26:59.519Z,24.00
2018-05-31T12:29:26.961Z,24.10
2018-05-31T12:31:54.411Z,24.10
2018-05-31T12:34:21.909Z,24.10
2018-05-31T12:36:49.339Z,24.30
2018-05-31T12:39:16.786Z,24.40
2018-05-31T12:41:44.223Z,24.50
2018-05-31T12:44:12.440Z,24.90
2018-05-31T12:46:39.926Z,24.90
2018-05-31T12:49:07.380Z,25.10
2018-05-31T12:51:34.880Z,25.20
2018-05-31T12:54:02.371Z,25.50
2018-05-31T12:56:29.829Z,25.50
2018-05-31T12:58:57.261Z,25.70
2018-05-31T13:01:24.756Z,26.10
2018-05-31T13:03:52.191Z,26.40
2018-05-31T13:06:19.625Z,26.60
2018-05-31T13:08:47.111Z,26.80
2018-05-31T13:11:14.539Z,26.90
2018-05-31T13:13:42.027Z,27.10
2018-05-31T13:16:09.481Z,27.00
2018-05-31T13:18:37.029Z,27.00
2018-05-31T13:21:04.492Z,27.10
2018-05-31T13:23:31.980Z,27.30
2018-05-31T13:25:59.513Z,27.40
2018-05-31T13:28:26.975Z,27.40
2018-05-31T13:30:54.404Z,27.50
2018-05-31T13:33:21.874Z,27.70
2018-05-31T13:35:50.060Z,28.10
2018-05-31T13:38:17.498Z,28.00
2018-05-31T13:40:44.954Z,28.30
2018-05-31T13:43:12.425Z,28.60
2018-05-31T13:45:40.575Z,29.00
2018-05-31T13:48:08.003Z,29.00
2018-05-31T13:50:36.195Z,29.40
2018-05-31T13:53:04.423Z,29.30
2018-05-31T13:55:31.875Z,29.30
2018-05-31T13:57:59.321Z,28.90
2018-05-31T14:00:26.814Z,28.60
2018-05-31T14:02:54.243Z,28.60
2018-05-31T14:05:21.689Z,28.50
2018-05-31T14:07:49.247Z,28.50
2018-05-31T14:10:16.806Z,28.50
2018-05-31T14:12:44.251Z,28.30
2018-05-31T14:15:11.747Z,28.30
2018-05-31T14:17:39.191Z,28.20
2018-05-31T14:20:06.625Z,28.10
2018-05-31T14:22:34.053Z,28.10
2018-05-31T14:25:02.261Z,27.60
2018-05-31T14:27:29.701Z,27.60
2018-05-31T14:29:57.196Z,27.40
2018-05-31T14:32:24.651Z,27.20
2018-05-31T14:34:52.091Z,27.10
2018-05-31T14:37:19.540Z,27.10
2018-05-31T14:39:47.009Z,27.30
2018-05-31T14:42:14.460Z,27.80
2018-05-31T14:44:41.920Z,28.40
2018-05-31T14:47:09.398Z,28.80
2018-05-31T14:49:36.856Z,28.70
2018-05-31T14:52:04.298Z,28.60
2018-05-31T14:54:31.748Z,28.30
2018-05-31T14:56:59.226Z,28.00
2018-05-31T14:59:26.717Z,27.80
2018-05-31T15:01:54.165Z,27.60
2018-05-31T15:04:21.602Z,27.30
2018-05-31T15:06:49.157Z,27.10
2018-05-31T15:09:16.603Z,27.00
2018-05-31T15:11:44.048Z,26.90
2018-05-31T15:14:11.647Z,27.20
2018-05-31T15:16:39.178Z,27.20
2018-05-31T15:19:07.360Z,27.60
2018-05-31T15:21:34.806Z,27.60
2018-05-31T15:24:02.231Z,27.50
2018-05-31T15:26:30.442Z,27.30
2018-05-31T15:28:57.887Z,27.30
2018-05-31T15:31:25.345Z,27.20
2018-05-31T15:33:52.798Z,27.10
2018-05-31T15:36:20.250Z,27.20
2018-05-31T15:38:47.746Z,27.80
2018-05-31T15:41:15.189Z,27.90
2018-05-31T15:43:42.627Z,27.80
2018-05-31T15:46:10.067Z,27.60
2018-05-31T15:48:38.275Z,27.60
2018-05-31T15:51:05.746Z,27.60
2018-05-31T15:53:33.184Z,27.50
2018-05-31T15:56:00.627Z,27.30
2018-05-31T15:58:28.071Z,27.50
2018-05-31T16:00:56.282Z,27.20
2018-05-31T16:03:23.744Z,27.20
2018-05-31T16:05:51.203Z,27.60
2018-05-31T16:08:18.671Z,28.10
2018-05-31T16:10:46.122Z,28.50
2018-05-31T16:13:13.590Z,29.00
2018-05-31T16:15:41.023Z,29.30
2018-05-31T16:18:08.476Z,29.60
2018-05-31T16:20:35.921Z,30.00
2018-05-31T16:23:03.355Z,30.10
2018-05-31T16:25:31.567Z,30.70
2018-05-31T16:27:59.018Z,30.70
2018-05-31T16:30:26.448Z,31.20
2018-05-31T16:32:55.033Z,31.10
2018-05-31T16:35:23.262Z,31.10
2018-05-31T16:37:50.711Z,31.10
2018-05-31T16:40:18.165Z,31.40
2018-05-31T16:42:45.613Z,31.40
2018-05-31T16:45:13.181Z,31.60
2018-05-31T16:47:40.653Z,31.70
2018-05-31T16:50:08.111Z,32.10
2018-05-31T16:52:35.546Z,32.50
2018-05-31T16:55:02.967Z,32.50
2018-05-31T16:57:31.186Z,31.40
2018-05-31T16:59:58.637Z,31.40
2018-05-31T17:02:26.071Z,30.70
2018-05-31T17:04:53.516Z,30.40
2018-05-31T17:07:21.715Z,29.40
2018-05-31T17:09:49.178Z,29.40
2018-05-31T17:12:16.607Z,29.20
2018-05-31T17:14:44.826Z,28.70
2018-05-31T17:17:12.258Z,28.70
2018-05-31T17:19:39.694Z,28.30
2018-05-31T17:22:07.991Z,27.90
2018-05-31T17:24:35.423Z,27.90
2018-05-31T17:27:03.671Z,27.50
2018-05-31T17:29:31.103Z,27.50
2018-05-31T17:31:58.567Z,27.30
2018-05-31T17:34:26.045Z,27.20
2018-05-31T17:36:53.484Z,27.20
2018-05-31T17:39:20.939Z,27.20
2018-05-31T17:41:48.706Z,27.10
2018-05-31T17:44:16.132Z,27.10
2018-05-31T17:46:43.604Z,26.90
2018-05-31T17:49:11.018Z,26.80
2018-05-31T17:51:39.228Z,26.70
2018-05-31T17:54:06.671Z,26.60
2018-05-31T17:56:34.134Z,26.70
2018-05-31T17:59:01.627Z,26.70
2018-05-31T18:01:29.080Z,26.60
2018-05-31T18:03:56.536Z,26.40
2018-05-31T18:06:24.006Z,26.40
2018-05-31T18:08:51.443Z,26.20
2018-05-31T18:11:18.889Z,26.10
2018-05-31T18:13:46.357Z,26.00
2018-05-31T18:16:13.791Z,25.80
2018-05-31T18:18:41.372Z,25.70
2018-05-31T18:21:08.839Z,25.70
2018-05-31T18:23:36.296Z,25.60
2018-05-31T18:26:03.759Z,25.50
2018-05-31T18:28:31.239Z,25.40
2018-05-31T18:30:59.451Z,25.30
2018-05-31T18:33:26.943Z,25.30
2018-05-31T18:35:54.423Z,25.20
2018-05-31T18:38:21.859Z,25.20
2018-05-31T18:40:49.295Z,25.10
2018-05-31T18:43:16.751Z,25.00
2018-05-31T18:45:44.255Z,24.90
2018-05-31T18:48:11.680Z,24.90
2018-05-31T18:50:39.133Z,24.90
2018-05-31T18:53:06.595Z,24.70
2018-05-31T18:55:34.044Z,24.70
2018-05-31T18:58:01.495Z,24.60
2018-05-31T19:00:28.943Z,24.60
2018-05-31T19:02:56.384Z,24.60
2018-05-31T19:05:24.623Z,24.60
2018-05-31T19:07:52.067Z,24.60
2018-05-31T19:10:19.526Z,24.50
2018-05-31T19:12:52.791Z,24.50
2018-05-31T19:15:21.768Z,24.50
2018-05-31T19:17:47.721Z,24.50
2018-05-31T19:20:15.145Z,24.50
2018-05-31T19:22:43.372Z,24.50
2018-05-31T19:25:16.616Z,24.50
2018-05-31T19:27:44.821Z,24.50
2018-05-31T19:30:17.825Z,24.50
2018-05-31T19:32:45.390Z,24.40
2018-05-31T19:35:18.603Z,24.50
2018-05-31T19:37:46.139Z,24.40
2018-05-31T19:40:13.644Z,24.30
2018-05-31T19:42:47.626Z,24.10
2018-05-31T19:45:15.715Z,24.10
2018-05-31T19:47:44.042Z,24.00
2018-05-31T19:50:11.516Z,24.10
2018-05-31T19:52:44.660Z,24.00
2018-05-31T19:55:12.879Z,23.90
2018-05-31T19:57:46.060Z,23.90
2018-05-31T20:00:19.146Z,23.90
2018-05-31T20:02:52.195Z,23.90
2018-05-31T20:05:20.410Z,23.70
2018-05-31T20:07:47.851Z,23.70
2018-05-31T20:10:15.355Z,23.70
2018-05-31T20:12:42.899Z,23.70
2018-05-31T20:15:10.356Z,23.60
2018-05-31T20:17:37.820Z,23.60
2018-05-31T20:20:05.399Z,23.60
2018-05-31T20:22:32.935Z,23.50
2018-05-31T20:25:00.498Z,23.40
2018-05-31T20:27:27.990Z,23.20
2018-05-31T20:29:55.427Z,23.10
2018-05-31T20:32:22.982Z,23.10
2018-05-31T20:34:50.427Z,23.10
2018-05-31T20:37:19.226Z,23.10
2018-05-31T20:39:47.697Z,23.00
2018-05-31T20:42:15.147Z,23.00
2018-05-31T20:44:42.579Z,22.90
2018-05-31T20:47:10.076Z,22.80
2018-05-31T20:49:37.519Z,22.80
2018-05-31T20:52:05.000Z,22.80
2018-05-31T20:54:32.456Z,22.70
2018-05-31T20:57:00.017Z,22.70
2018-05-31T20:59:27.471Z,22.70
2018-05-31T21:01:54.907Z,22.70
2018-05-31T21:04:22.363Z,22.60
2018-05-31T21:06:49.875Z,22.40
2018-05-31T21:09:18.074Z,22.30
2018-05-31T21:11:45.553Z,22.20
2018-05-31T21:14:13.009Z,22.20
2018-05-31T21:16:40.575Z,22.20
2018-05-31T21:19:08.046Z,22.20
2018-05-31T21:21:35.489Z,22.20
2018-05-31T21:24:02.946Z,22.20
2018-05-31T21:26:30.403Z,22.00
2018-05-31T21:28:57.849Z,21.90
2018-05-31T21:31:25.320Z,21.90
2018-05-31T21:33:52.757Z,22.00
2018-05-31T21:36:20.320Z,22.00
2018-05-31T21:38:47.692Z,22.00
2018-05-31T21:41:15.187Z,22.00
2018-05-31T21:43:42.645Z,21.90
2018-05-31T21:46:10.075Z,21.80
2018-05-31T21:48:37.519Z,21.80
2018-05-31T21:51:04.983Z,21.70
2018-05-31T21:53:32.435Z,21.70
2018-05-31T21:55:59.871Z,21.70
2018-05-31T21:58:27.350Z,21.70
2018-05-31T22:00:55.695Z,21.60
2018-05-31T22:03:23.148Z,21.50
2018-05-31T22:05:50.678Z,21.40
2018-05-31T22:08:18.876Z,21.30
2018-05-31T22:10:46.331Z,21.30
2018-05-31T22:13:13.817Z,21.20
2018-05-31T22:15:41.248Z,21.20
2018-05-31T22:18:08.731Z,21.20
2018-05-31T22:20:36.283Z,21.00
2018-05-31T22:23:03.747Z,20.90
2018-05-31T22:25:31.195Z,20.90
2018-05-31T22:27:58.651Z,20.90
2018-05-31T22:30:26.160Z,20.80
2018-05-31T22:32:53.682Z,20.70
2018-05-31T22:35:21.150Z,20.60
2018-05-31T22:37:48.603Z,20.50
2018-05-31T22:40:16.102Z,20.50
2018-05-31T22:42:44.313Z,20.40
2018-05-31T22:45:11.791Z,20.40
2018-05-31T22:47:39.448Z,20.30
2018-05-31T22:50:06.884Z,20.30
2018-05-31T22:52:34.326Z,20.30
2018-05-31T22:55:01.770Z,20.20
2018-05-31T22:57:30.011Z,20.30
2018-05-31T22:59:57.437Z,20.30
2018-05-31T23:02:24.894Z,20.40
2018-05-31T23:04:52.342Z,20.40
2018-05-31T23:07:19.771Z,20.30
2018-05-31T23:09:47.970Z,20.20
2018-05-31T23:12:15.553Z,20.20
2018-05-31T23:14:43.028Z,20.20
2018-05-31T23:17:10.490Z,20.10
2018-05-31T23:19:37.939Z,20.10
2018-05-31T23:22:05.381Z,20.10
2018-05-31T23:24:32.846Z,20.10
2018-05-31T23:27:00.308Z,20.10
2018-05-31T23:29:27.770Z,20.20
2018-05-31T23:31:55.213Z,20.20
2018-05-31T23:34:22.679Z,20.20
2018-05-31T23:36:50.139Z,20.20
2018-05-31T23:39:17.596Z,20.20
2018-05-31T23:41:45.063Z,20.20
2018-05-31T23:44:12.700Z,20.20
2018-05-31T23:46:40.116Z,20.10
2018-05-31T23:49:08.332Z,19.80
2018-05-31T23:51:35.799Z,19.80
2018-05-31T23:54:03.260Z,19.80
2018-05-31T23:56:30.716Z,19.80
2018-05-31T23:58:58.167Z,19.70
